East Hills, New York
Current Conditions -  °F | °C
As of 10:51 AM on Saturday 20 Dec 2014 (Local Time) from KLGA Reporting Station
Overcast Overcast  
Wind Chill: 23°   Ceiling: 2600
Heat Index: 31°   Visibility: 10mi
Dew Point: 20°   Wind: 9mph
Humidity: 64%   Direction: 350°N
Pressure: 30.3"   Gusts: NA
Location:  40.8044°N, 73.641°W
Report Text: KLGA 201551Z 35008KT 10SM OVC026 M01/M07 A3030 RMK AO2 SLP259 T10061067
Loading
Personal Weather Stations






























Interactive Weather Map New forecast layout! Learn more

10-Day Weather Forecast

Advertisements
Track Severe Weather on mobile